sensor_id;sensor_type;location;lat;lon;timestamp;P1;durP1;ratioP1;P2;durP2;ratioP2
29484;SDS011;16440;59.494;17.978;2022-08-25T00:00:10;2.35;;;1.40;;
29484;SDS011;16440;59.494;17.978;2022-08-25T00:02:40;4.53;;;1.50;;
29484;SDS011;16440;59.494;17.978;2022-08-25T00:05:10;2.90;;;1.62;;
29484;SDS011;16440;59.494;17.978;2022-08-25T00:07:38;3.25;;;1.50;;
29484;SDS011;16440;59.494;17.978;2022-08-25T00:10:07;2.20;;;1.50;;
29484;SDS011;16440;59.494;17.978;2022-08-25T00:12:35;1.87;;;1.40;;
29484;SDS011;16440;59.494;17.978;2022-08-25T00:15:04;2.80;;;1.52;;
29484;SDS011;16440;59.494;17.978;2022-08-25T00:17:34;2.72;;;1.33;;
29484;SDS011;16440;59.494;17.978;2022-08-25T00:20:12;1.98;;;1.40;;
29484;SDS011;16440;59.494;17.978;2022-08-25T00:22:43;4.37;;;1.37;;
29484;SDS011;16440;59.494;17.978;2022-08-25T00:25:13;2.10;;;1.45;;
29484;SDS011;16440;59.494;17.978;2022-08-25T00:27:41;2.50;;;1.45;;
29484;SDS011;16440;59.494;17.978;2022-08-25T00:30:10;2.28;;;1.50;;
29484;SDS011;16440;59.494;17.978;2022-08-25T00:32:40;2.53;;;1.42;;
29484;SDS011;16440;59.494;17.978;2022-08-25T00:35:11;2.70;;;1.40;;
29484;SDS011;16440;59.494;17.978;2022-08-25T00:37:40;3.60;;;1.55;;
29484;SDS011;16440;59.494;17.978;2022-08-25T00:40:11;4.70;;;1.95;;
29484;SDS011;16440;59.494;17.978;2022-08-25T00:42:40;1.55;;;1.45;;
29484;SDS011;16440;59.494;17.978;2022-08-25T00:45:08;1.85;;;1.52;;
29484;SDS011;16440;59.494;17.978;2022-08-25T00:47:37;3.60;;;1.67;;
29484;SDS011;16440;59.494;17.978;2022-08-25T00:50:06;5.32;;;1.80;;
29484;SDS011;16440;59.494;17.978;2022-08-25T00:52:38;1.90;;;1.40;;
29484;SDS011;16440;59.494;17.978;2022-08-25T00:55:12;2.37;;;1.33;;
29484;SDS011;16440;59.494;17.978;2022-08-25T00:57:45;4.25;;;1.73;;
29484;SDS011;16440;59.494;17.978;2022-08-25T01:00:21;2.60;;;1.42;;
29484;SDS011;16440;59.494;17.978;2022-08-25T01:02:55;4.80;;;1.65;;
29484;SDS011;16440;59.494;17.978;2022-08-25T01:05:25;2.30;;;1.60;;
29484;SDS011;16440;59.494;17.978;2022-08-25T01:07:56;3.12;;;1.60;;
29484;SDS011;16440;59.494;17.978;2022-08-25T01:10:27;4.22;;;1.62;;
29484;SDS011;16440;59.494;17.978;2022-08-25T01:13:00;3.20;;;1.70;;
29484;SDS011;16440;59.494;17.978;2022-08-25T01:15:33;3.60;;;1.52;;
29484;SDS011;16440;59.494;17.978;2022-08-25T01:18:02;2.37;;;1.50;;
29484;SDS011;16440;59.494;17.978;2022-08-25T01:20:30;1.80;;;1.48;;
29484;SDS011;16440;59.494;17.978;2022-08-25T01:23:00;3.03;;;1.77;;
29484;SDS011;16440;59.494;17.978;2022-08-25T01:25:35;2.20;;;1.70;;
29484;SDS011;16440;59.494;17.978;2022-08-25T01:28:11;3.03;;;1.58;;
29484;SDS011;16440;59.494;17.978;2022-08-25T01:30:40;1.75;;;1.52;;
29484;SDS011;16440;59.494;17.978;2022-08-25T01:33:09;1.90;;;1.65;;
29484;SDS011;16440;59.494;17.978;2022-08-25T01:35:38;2.15;;;1.50;;
29484;SDS011;16440;59.494;17.978;2022-08-25T01:38:11;2.37;;;1.62;;
29484;SDS011;16440;59.494;17.978;2022-08-25T01:40:40;4.03;;;1.73;;
29484;SDS011;16440;59.494;17.978;2022-08-25T01:43:20;3.15;;;1.50;;
29484;SDS011;16440;59.494;17.978;2022-08-25T01:48:28;3.87;;;1.65;;
29484;SDS011;16440;59.494;17.978;2022-08-25T01:53:25;2.95;;;1.80;;
29484;SDS011;16440;59.494;17.978;2022-08-25T01:58:26;3.12;;;1.83;;
29484;SDS011;16440;59.494;17.978;2022-08-25T02:00:56;3.83;;;1.60;;
29484;SDS011;16440;59.494;17.978;2022-08-25T02:03:29;2.53;;;1.70;;
29484;SDS011;16440;59.494;17.978;2022-08-25T02:06:01;5.12;;;1.50;;
29484;SDS011;16440;59.494;17.978;2022-08-25T02:08:29;2.50;;;1.60;;
29484;SDS011;16440;59.494;17.978;2022-08-25T02:10:59;1.62;;;1.40;;
29484;SDS011;16440;59.494;17.978;2022-08-25T02:13:28;4.85;;;1.58;;
29484;SDS011;16440;59.494;17.978;2022-08-25T02:15:58;7.78;;;1.90;;
29484;SDS011;16440;59.494;17.978;2022-08-25T02:18:30;6.15;;;1.65;;
29484;SDS011;16440;59.494;17.978;2022-08-25T02:20:58;3.05;;;1.60;;
29484;SDS011;16440;59.494;17.978;2022-08-25T02:23:27;3.90;;;1.70;;
29484;SDS011;16440;59.494;17.978;2022-08-25T02:25:58;2.65;;;1.62;;
29484;SDS011;16440;59.494;17.978;2022-08-25T02:28:28;1.85;;;1.70;;
29484;SDS011;16440;59.494;17.978;2022-08-25T02:33:25;3.22;;;1.60;;
29484;SDS011;16440;59.494;17.978;2022-08-25T02:35:55;3.72;;;1.95;;
29484;SDS011;16440;59.494;17.978;2022-08-25T02:38:24;2.80;;;1.95;;
29484;SDS011;16440;59.494;17.978;2022-08-25T02:40:53;3.58;;;1.30;;
29484;SDS011;16440;59.494;17.978;2022-08-25T02:43:24;3.05;;;1.80;;
29484;SDS011;16440;59.494;17.978;2022-08-25T02:45:53;1.67;;;1.40;;
29484;SDS011;16440;59.494;17.978;2022-08-25T02:48:21;2.83;;;1.52;;
29484;SDS011;16440;59.494;17.978;2022-08-25T02:50:52;2.67;;;1.83;;
29484;SDS011;16440;59.494;17.978;2022-08-25T02:53:29;2.20;;;1.73;;
29484;SDS011;16440;59.494;17.978;2022-08-25T02:56:00;4.37;;;1.62;;
29484;SDS011;16440;59.494;17.978;2022-08-25T02:58:31;3.03;;;1.67;;
29484;SDS011;16440;59.494;17.978;2022-08-25T03:01:01;2.58;;;1.70;;
29484;SDS011;16440;59.494;17.978;2022-08-25T03:03:31;2.35;;;1.60;;
29484;SDS011;16440;59.494;17.978;2022-08-25T03:06:07;2.55;;;1.62;;
29484;SDS011;16440;59.494;17.978;2022-08-25T03:08:37;1.80;;;1.58;;
29484;SDS011;16440;59.494;17.978;2022-08-25T03:11:06;3.47;;;2.05;;
29484;SDS011;16440;59.494;17.978;2022-08-25T03:13:35;5.95;;;1.90;;
29484;SDS011;16440;59.494;17.978;2022-08-25T03:16:04;2.17;;;1.60;;
29484;SDS011;16440;59.494;17.978;2022-08-25T03:18:33;4.45;;;1.60;;
29484;SDS011;16440;59.494;17.978;2022-08-25T03:21:01;2.60;;;1.62;;
29484;SDS011;16440;59.494;17.978;2022-08-25T03:23:33;5.00;;;1.70;;
29484;SDS011;16440;59.494;17.978;2022-08-25T03:26:01;3.60;;;1.80;;
29484;SDS011;16440;59.494;17.978;2022-08-25T03:28:49;4.80;;;1.80;;
29484;SDS011;16440;59.494;17.978;2022-08-25T03:31:22;3.15;;;1.73;;
29484;SDS011;16440;59.494;17.978;2022-08-25T03:36:24;2.95;;;2.00;;
29484;SDS011;16440;59.494;17.978;2022-08-25T03:41:31;3.17;;;1.40;;
29484;SDS011;16440;59.494;17.978;2022-08-25T03:44:00;3.40;;;1.95;;
29484;SDS011;16440;59.494;17.978;2022-08-25T03:46:30;5.90;;;2.15;;
29484;SDS011;16440;59.494;17.978;2022-08-25T03:49:00;3.60;;;1.90;;
29484;SDS011;16440;59.494;17.978;2022-08-25T03:51:31;3.08;;;1.87;;
29484;SDS011;16440;59.494;17.978;2022-08-25T03:54:04;3.47;;;1.73;;
29484;SDS011;16440;59.494;17.978;2022-08-25T03:56:36;2.70;;;1.70;;
29484;SDS011;16440;59.494;17.978;2022-08-25T03:59:07;2.10;;;1.58;;
29484;SDS011;16440;59.494;17.978;2022-08-25T04:01:36;4.15;;;2.00;;
29484;SDS011;16440;59.494;17.978;2022-08-25T04:04:09;2.65;;;1.65;;
29484;SDS011;16440;59.494;17.978;2022-08-25T04:06:38;2.53;;;1.80;;
29484;SDS011;16440;59.494;17.978;2022-08-25T04:09:09;4.82;;;2.05;;
29484;SDS011;16440;59.494;17.978;2022-08-25T04:11:42;5.55;;;2.00;;
29484;SDS011;16440;59.494;17.978;2022-08-25T04:14:13;2.70;;;1.92;;
29484;SDS011;16440;59.494;17.978;2022-08-25T04:16:44;2.22;;;1.62;;
29484;SDS011;16440;59.494;17.978;2022-08-25T04:19:12;2.40;;;1.90;;
29484;SDS011;16440;59.494;17.978;2022-08-25T04:21:41;5.87;;;2.03;;
29484;SDS011;16440;59.494;17.978;2022-08-25T04:24:12;2.47;;;1.67;;
29484;SDS011;16440;59.494;17.978;2022-08-25T04:26:43;2.57;;;1.60;;
29484;SDS011;16440;59.494;17.978;2022-08-25T04:29:13;2.87;;;1.87;;
29484;SDS011;16440;59.494;17.978;2022-08-25T04:31:46;7.53;;;1.70;;
29484;SDS011;16440;59.494;17.978;2022-08-25T04:34:15;5.78;;;1.80;;
29484;SDS011;16440;59.494;17.978;2022-08-25T04:36:49;2.40;;;1.58;;
29484;SDS011;16440;59.494;17.978;2022-08-25T04:39:20;2.42;;;1.70;;
29484;SDS011;16440;59.494;17.978;2022-08-25T04:41:54;4.85;;;2.03;;
29484;SDS011;16440;59.494;17.978;2022-08-25T04:44:24;3.03;;;1.65;;
29484;SDS011;16440;59.494;17.978;2022-08-25T04:49:26;4.45;;;1.95;;
29484;SDS011;16440;59.494;17.978;2022-08-25T04:51:54;3.85;;;2.37;;
29484;SDS011;16440;59.494;17.978;2022-08-25T04:54:25;3.87;;;1.65;;
29484;SDS011;16440;59.494;17.978;2022-08-25T04:59:24;3.10;;;1.90;;
29484;SDS011;16440;59.494;17.978;2022-08-25T05:04:27;2.75;;;1.90;;
29484;SDS011;16440;59.494;17.978;2022-08-25T05:06:56;2.40;;;1.87;;
29484;SDS011;16440;59.494;17.978;2022-08-25T05:09:26;3.87;;;1.58;;
29484;SDS011;16440;59.494;17.978;2022-08-25T05:11:54;2.30;;;1.60;;
29484;SDS011;16440;59.494;17.978;2022-08-25T05:14:22;4.00;;;1.70;;
29484;SDS011;16440;59.494;17.978;2022-08-25T05:16:50;3.47;;;1.70;;
29484;SDS011;16440;59.494;17.978;2022-08-25T05:19:18;2.67;;;1.80;;
29484;SDS011;16440;59.494;17.978;2022-08-25T05:21:48;2.40;;;1.90;;
29484;SDS011;16440;59.494;17.978;2022-08-25T05:24:19;3.17;;;1.73;;
29484;SDS011;16440;59.494;17.978;2022-08-25T05:26:47;2.42;;;1.55;;
29484;SDS011;16440;59.494;17.978;2022-08-25T05:29:16;4.32;;;1.73;;
29484;SDS011;16440;59.494;17.978;2022-08-25T05:31:44;3.35;;;1.98;;
29484;SDS011;16440;59.494;17.978;2022-08-25T05:34:12;3.20;;;2.15;;
29484;SDS011;16440;59.494;17.978;2022-08-25T05:36:47;5.82;;;1.87;;
29484;SDS011;16440;59.494;17.978;2022-08-25T05:39:20;6.25;;;2.25;;
29484;SDS011;16440;59.494;17.978;2022-08-25T05:41:49;3.42;;;2.35;;
29484;SDS011;16440;59.494;17.978;2022-08-25T05:44:20;2.80;;;2.12;;
29484;SDS011;16440;59.494;17.978;2022-08-25T05:46:48;3.70;;;2.35;;
29484;SDS011;16440;59.494;17.978;2022-08-25T05:49:17;3.05;;;2.20;;
29484;SDS011;16440;59.494;17.978;2022-08-25T05:51:45;4.07;;;2.45;;
29484;SDS011;16440;59.494;17.978;2022-08-25T05:54:15;4.12;;;2.20;;
29484;SDS011;16440;59.494;17.978;2022-08-25T05:56:45;5.03;;;2.20;;
29484;SDS011;16440;59.494;17.978;2022-08-25T05:59:13;4.20;;;2.40;;
29484;SDS011;16440;59.494;17.978;2022-08-25T06:01:47;5.05;;;2.60;;
29484;SDS011;16440;59.494;17.978;2022-08-25T06:04:21;3.08;;;2.30;;
29484;SDS011;16440;59.494;17.978;2022-08-25T06:06:49;4.28;;;2.45;;
29484;SDS011;16440;59.494;17.978;2022-08-25T06:09:19;3.60;;;2.30;;
29484;SDS011;16440;59.494;17.978;2022-08-25T06:11:56;2.27;;;1.97;;
29484;SDS011;16440;59.494;17.978;2022-08-25T06:14:26;2.08;;;1.87;;
29484;SDS011;16440;59.494;17.978;2022-08-25T06:16:54;2.20;;;1.75;;
29484;SDS011;16440;59.494;17.978;2022-08-25T06:19:23;2.62;;;1.75;;
29484;SDS011;16440;59.494;17.978;2022-08-25T06:21:55;3.37;;;1.60;;
29484;SDS011;16440;59.494;17.978;2022-08-25T06:24:22;3.75;;;1.58;;
29484;SDS011;16440;59.494;17.978;2022-08-25T06:26:54;1.62;;;1.30;;
29484;SDS011;16440;59.494;17.978;2022-08-25T06:29:21;2.92;;;1.37;;
29484;SDS011;16440;59.494;17.978;2022-08-25T06:34:28;2.70;;;1.60;;
29484;SDS011;16440;59.494;17.978;2022-08-25T06:37:00;2.45;;;1.35;;
29484;SDS011;16440;59.494;17.978;2022-08-25T06:39:31;1.70;;;1.42;;
29484;SDS011;16440;59.494;17.978;2022-08-25T06:41:59;2.30;;;1.50;;
29484;SDS011;16440;59.494;17.978;2022-08-25T06:44:29;4.20;;;1.52;;
29484;SDS011;16440;59.494;17.978;2022-08-25T06:46:59;1.65;;;1.23;;
29484;SDS011;16440;59.494;17.978;2022-08-25T06:49:33;2.40;;;1.25;;
29484;SDS011;16440;59.494;17.978;2022-08-25T06:52:04;4.55;;;1.40;;
29484;SDS011;16440;59.494;17.978;2022-08-25T06:54:36;2.60;;;1.45;;
29484;SDS011;16440;59.494;17.978;2022-08-25T07:11:46;1.23;;;1.00;;
29484;SDS011;16440;59.494;17.978;2022-08-25T07:14:15;4.30;;;1.12;;
29484;SDS011;16440;59.494;17.978;2022-08-25T07:16:46;2.92;;;1.17;;
29484;SDS011;16440;59.494;17.978;2022-08-25T07:24:12;4.00;;;1.50;;
29484;SDS011;16440;59.494;17.978;2022-08-25T07:26:43;1.52;;;1.00;;
29484;SDS011;16440;59.494;17.978;2022-08-25T07:29:16;1.27;;;1.08;;
29484;SDS011;16440;59.494;17.978;2022-08-25T07:31:51;1.50;;;0.98;;
29484;SDS011;16440;59.494;17.978;2022-08-25T07:34:21;4.07;;;1.10;;
29484;SDS011;16440;59.494;17.978;2022-08-25T07:37:27;2.65;;;1.20;;
29484;SDS011;16440;59.494;17.978;2022-08-25T07:40:00;2.83;;;1.08;;
29484;SDS011;16440;59.494;17.978;2022-08-25T07:42:34;1.87;;;1.05;;
29484;SDS011;16440;59.494;17.978;2022-08-25T07:45:15;2.15;;;1.20;;
29484;SDS011;16440;59.494;17.978;2022-08-25T07:47:49;1.47;;;1.10;;
29484;SDS011;16440;59.494;17.978;2022-08-25T07:50:21;1.85;;;1.00;;
29484;SDS011;16440;59.494;17.978;2022-08-25T07:52:51;2.33;;;1.10;;
29484;SDS011;16440;59.494;17.978;2022-08-25T07:55:23;1.08;;;0.90;;
29484;SDS011;16440;59.494;17.978;2022-08-25T08:00:28;3.47;;;0.98;;
29484;SDS011;16440;59.494;17.978;2022-08-25T08:03:01;2.53;;;1.20;;
29484;SDS011;16440;59.494;17.978;2022-08-25T08:05:34;1.33;;;0.90;;
29484;SDS011;16440;59.494;17.978;2022-08-25T08:08:07;1.98;;;1.30;;
29484;SDS011;16440;59.494;17.978;2022-08-25T08:10:39;0.90;;;0.73;;
29484;SDS011;16440;59.494;17.978;2022-08-25T08:13:21;2.15;;;0.90;;
29484;SDS011;16440;59.494;17.978;2022-08-25T08:18:39;3.45;;;0.82;;
29484;SDS011;16440;59.494;17.978;2022-08-25T08:21:11;0.95;;;0.80;;
29484;SDS011;16440;59.494;17.978;2022-08-25T08:23:46;1.55;;;0.70;;
29484;SDS011;16440;59.494;17.978;2022-08-25T08:26:21;2.25;;;0.80;;
29484;SDS011;16440;59.494;17.978;2022-08-25T08:31:26;1.92;;;0.70;;
29484;SDS011;16440;59.494;17.978;2022-08-25T08:36:22;1.00;;;0.70;;
29484;SDS011;16440;59.494;17.978;2022-08-25T08:38:53;1.60;;;0.80;;
29484;SDS011;16440;59.494;17.978;2022-08-25T08:41:35;2.47;;;1.00;;
29484;SDS011;16440;59.494;17.978;2022-08-25T08:44:27;1.67;;;1.00;;
29484;SDS011;16440;59.494;17.978;2022-08-25T08:47:10;1.75;;;0.82;;
29484;SDS011;16440;59.494;17.978;2022-08-25T08:49:51;1.77;;;1.00;;
29484;SDS011;16440;59.494;17.978;2022-08-25T08:52:24;2.55;;;0.80;;
29484;SDS011;16440;59.494;17.978;2022-08-25T08:55:17;2.92;;;0.80;;
29484;SDS011;16440;59.494;17.978;2022-08-25T08:57:52;2.58;;;0.82;;
29484;SDS011;16440;59.494;17.978;2022-08-25T09:00:27;2.47;;;0.90;;
29484;SDS011;16440;59.494;17.978;2022-08-25T09:03:07;2.62;;;0.70;;
29484;SDS011;16440;59.494;17.978;2022-08-25T09:05:48;3.45;;;1.00;;
29484;SDS011;16440;59.494;17.978;2022-08-25T09:08:27;2.17;;;0.80;;
29484;SDS011;16440;59.494;17.978;2022-08-25T09:11:00;4.37;;;0.90;;
29484;SDS011;16440;59.494;17.978;2022-08-25T09:13:37;3.05;;;0.90;;
29484;SDS011;16440;59.494;17.978;2022-08-25T09:16:17;1.65;;;0.90;;
29484;SDS011;16440;59.494;17.978;2022-08-25T09:19:20;4.28;;;1.00;;
29484;SDS011;16440;59.494;17.978;2022-08-25T09:22:02;1.70;;;0.90;;
29484;SDS011;16440;59.494;17.978;2022-08-25T09:24:47;2.05;;;0.70;;
29484;SDS011;16440;59.494;17.978;2022-08-25T09:27:22;2.35;;;0.90;;
29484;SDS011;16440;59.494;17.978;2022-08-25T09:32:28;3.28;;;0.80;;
29484;SDS011;16440;59.494;17.978;2022-08-25T09:34:59;4.00;;;0.80;;
29484;SDS011;16440;59.494;17.978;2022-08-25T09:37:35;2.45;;;0.80;;
29484;SDS011;16440;59.494;17.978;2022-08-25T09:40:03;1.83;;;0.82;;
29484;SDS011;16440;59.494;17.978;2022-08-25T09:42:46;3.92;;;0.90;;
29484;SDS011;16440;59.494;17.978;2022-08-25T09:45:29;1.33;;;0.80;;
29484;SDS011;16440;59.494;17.978;2022-08-25T09:48:03;1.58;;;1.02;;
29484;SDS011;16440;59.494;17.978;2022-08-25T09:50:54;1.67;;;0.77;;
29484;SDS011;16440;59.494;17.978;2022-08-25T09:53:22;2.55;;;1.27;;
29484;SDS011;16440;59.494;17.978;2022-08-25T09:55:55;1.15;;;0.80;;
29484;SDS011;16440;59.494;17.978;2022-08-25T09:58:24;1.40;;;1.00;;
29484;SDS011;16440;59.494;17.978;2022-08-25T10:03:25;2.25;;;0.77;;
29484;SDS011;16440;59.494;17.978;2022-08-25T10:08:31;1.35;;;0.70;;
29484;SDS011;16440;59.494;17.978;2022-08-25T10:11:06;1.17;;;0.68;;
29484;SDS011;16440;59.494;17.978;2022-08-25T10:13:40;1.92;;;0.77;;
29484;SDS011;16440;59.494;17.978;2022-08-25T10:16:11;3.00;;;1.08;;
29484;SDS011;16440;59.494;17.978;2022-08-25T10:21:31;1.62;;;0.70;;
29484;SDS011;16440;59.494;17.978;2022-08-25T10:24:02;4.30;;;1.20;;
29484;SDS011;16440;59.494;17.978;2022-08-25T10:26:34;3.30;;;0.95;;
29484;SDS011;16440;59.494;17.978;2022-08-25T10:29:14;2.35;;;0.80;;
29484;SDS011;16440;59.494;17.978;2022-08-25T10:31:56;1.77;;;0.75;;
29484;SDS011;16440;59.494;17.978;2022-08-25T10:34:32;2.47;;;0.70;;
29484;SDS011;16440;59.494;17.978;2022-08-25T10:37:11;3.37;;;0.80;;
29484;SDS011;16440;59.494;17.978;2022-08-25T10:39:53;2.10;;;1.12;;
29484;SDS011;16440;59.494;17.978;2022-08-25T10:42:31;2.22;;;0.75;;
29484;SDS011;16440;59.494;17.978;2022-08-25T10:50:28;1.85;;;0.80;;
29484;SDS011;16440;59.494;17.978;2022-08-25T10:53:07;2.70;;;0.77;;
29484;SDS011;16440;59.494;17.978;2022-08-25T10:55:54;2.45;;;0.60;;
29484;SDS011;16440;59.494;17.978;2022-08-25T10:58:42;4.40;;;0.90;;
29484;SDS011;16440;59.494;17.978;2022-08-25T11:01:24;1.27;;;1.05;;
29484;SDS011;16440;59.494;17.978;2022-08-25T11:04:08;2.22;;;0.90;;
29484;SDS011;16440;59.494;17.978;2022-08-25T11:06:41;2.87;;;0.70;;
29484;SDS011;16440;59.494;17.978;2022-08-25T11:09:20;1.12;;;0.70;;
29484;SDS011;16440;59.494;17.978;2022-08-25T11:11:53;3.05;;;0.80;;
29484;SDS011;16440;59.494;17.978;2022-08-25T11:14:23;2.33;;;0.80;;
29484;SDS011;16440;59.494;17.978;2022-08-25T11:17:00;2.37;;;0.80;;
29484;SDS011;16440;59.494;17.978;2022-08-25T11:19:34;1.77;;;0.90;;
29484;SDS011;16440;59.494;17.978;2022-08-25T11:22:06;2.87;;;0.90;;
29484;SDS011;16440;59.494;17.978;2022-08-25T11:24:54;2.15;;;1.00;;
29484;SDS011;16440;59.494;17.978;2022-08-25T11:27:24;1.40;;;0.70;;
29484;SDS011;16440;59.494;17.978;2022-08-25T11:30:40;2.70;;;0.70;;
29484;SDS011;16440;59.494;17.978;2022-08-25T11:41:38;1.67;;;0.80;;
29484;SDS011;16440;59.494;17.978;2022-08-25T11:44:31;3.12;;;0.70;;
29484;SDS011;16440;59.494;17.978;2022-08-25T11:47:33;2.62;;;0.90;;
29484;SDS011;16440;59.494;17.978;2022-08-25T11:53:21;2.65;;;0.70;;
29484;SDS011;16440;59.494;17.978;2022-08-25T11:55:53;2.62;;;0.80;;
29484;SDS011;16440;59.494;17.978;2022-08-25T12:01:57;2.35;;;0.80;;
29484;SDS011;16440;59.494;17.978;2022-08-25T12:04:32;1.00;;;0.70;;
29484;SDS011;16440;59.494;17.978;2022-08-25T12:07:18;1.70;;;0.93;;
29484;SDS011;16440;59.494;17.978;2022-08-25T12:12:31;1.15;;;0.80;;
29484;SDS011;16440;59.494;17.978;2022-08-25T12:15:12;1.48;;;0.90;;
29484;SDS011;16440;59.494;17.978;2022-08-25T12:23:38;1.10;;;0.75;;
29484;SDS011;16440;59.494;17.978;2022-08-25T12:31:44;1.52;;;0.80;;
29484;SDS011;16440;59.494;17.978;2022-08-25T12:34:28;2.47;;;0.80;;
29484;SDS011;16440;59.494;17.978;2022-08-25T12:37:10;4.15;;;0.90;;
29484;SDS011;16440;59.494;17.978;2022-08-25T12:39:52;1.45;;;0.80;;
29484;SDS011;16440;59.494;17.978;2022-08-25T12:42:22;2.12;;;0.80;;
29484;SDS011;16440;59.494;17.978;2022-08-25T12:45:09;1.33;;;0.80;;
29484;SDS011;16440;59.494;17.978;2022-08-25T12:47:41;2.33;;;0.70;;
29484;SDS011;16440;59.494;17.978;2022-08-25T12:50:29;3.42;;;0.70;;
29484;SDS011;16440;59.494;17.978;2022-08-25T12:53:11;0.88;;;0.70;;
29484;SDS011;16440;59.494;17.978;2022-08-25T12:56:04;2.37;;;0.75;;
29484;SDS011;16440;59.494;17.978;2022-08-25T12:58:36;1.35;;;0.70;;
29484;SDS011;16440;59.494;17.978;2022-08-25T13:01:17;4.20;;;1.10;;
29484;SDS011;16440;59.494;17.978;2022-08-25T13:04:03;1.40;;;0.67;;
29484;SDS011;16440;59.494;17.978;2022-08-25T13:06:53;2.03;;;0.77;;
29484;SDS011;16440;59.494;17.978;2022-08-25T13:12:36;2.05;;;0.70;;
29484;SDS011;16440;59.494;17.978;2022-08-25T13:15:25;2.45;;;0.77;;
29484;SDS011;16440;59.494;17.978;2022-08-25T13:18:17;2.37;;;0.70;;
29484;SDS011;16440;59.494;17.978;2022-08-25T13:20:48;1.02;;;0.60;;
29484;SDS011;16440;59.494;17.978;2022-08-25T13:23:21;2.92;;;0.65;;
29484;SDS011;16440;59.494;17.978;2022-08-25T13:25:52;1.37;;;0.55;;
29484;SDS011;16440;59.494;17.978;2022-08-25T13:28:25;2.10;;;0.93;;
29484;SDS011;16440;59.494;17.978;2022-08-25T13:33:26;1.75;;;0.70;;
29484;SDS011;16440;59.494;17.978;2022-08-25T13:36:14;2.12;;;0.70;;
29484;SDS011;16440;59.494;17.978;2022-08-25T13:39:09;1.30;;;0.68;;
29484;SDS011;16440;59.494;17.978;2022-08-25T13:41:43;2.22;;;0.73;;
29484;SDS011;16440;59.494;17.978;2022-08-25T13:44:16;2.95;;;1.15;;
29484;SDS011;16440;59.494;17.978;2022-08-25T13:46:46;1.70;;;0.73;;
29484;SDS011;16440;59.494;17.978;2022-08-25T13:49:25;1.85;;;0.70;;
29484;SDS011;16440;59.494;17.978;2022-08-25T13:54:39;1.02;;;0.60;;
29484;SDS011;16440;59.494;17.978;2022-08-25T13:57:20;0.85;;;0.65;;
29484;SDS011;16440;59.494;17.978;2022-08-25T13:59:55;1.95;;;0.70;;
29484;SDS011;16440;59.494;17.978;2022-08-25T14:02:40;0.77;;;0.50;;
29484;SDS011;16440;59.494;17.978;2022-08-25T14:05:31;1.33;;;0.60;;
29484;SDS011;16440;59.494;17.978;2022-08-25T14:08:05;1.62;;;0.80;;
29484;SDS011;16440;59.494;17.978;2022-08-25T14:10:36;1.00;;;0.77;;
29484;SDS011;16440;59.494;17.978;2022-08-25T14:13:10;4.10;;;0.90;;
29484;SDS011;16440;59.494;17.978;2022-08-25T14:15:43;0.95;;;0.70;;
29484;SDS011;16440;59.494;17.978;2022-08-25T14:18:17;3.35;;;0.88;;
29484;SDS011;16440;59.494;17.978;2022-08-25T14:20:49;2.72;;;0.65;;
29484;SDS011;16440;59.494;17.978;2022-08-25T14:25:48;3.35;;;0.80;;
29484;SDS011;16440;59.494;17.978;2022-08-25T14:28:20;0.68;;;0.60;;
29484;SDS011;16440;59.494;17.978;2022-08-25T14:30:55;1.25;;;0.90;;
29484;SDS011;16440;59.494;17.978;2022-08-25T14:35:52;3.72;;;0.70;;
29484;SDS011;16440;59.494;17.978;2022-08-25T14:38:27;1.27;;;0.65;;
29484;SDS011;16440;59.494;17.978;2022-08-25T14:41:17;2.58;;;0.80;;
29484;SDS011;16440;59.494;17.978;2022-08-25T14:46:29;6.43;;;0.80;;
29484;SDS011;16440;59.494;17.978;2022-08-25T14:49:03;2.17;;;0.80;;
29484;SDS011;16440;59.494;17.978;2022-08-25T14:51:34;1.50;;;0.65;;
29484;SDS011;16440;59.494;17.978;2022-08-25T14:54:09;1.83;;;0.95;;
29484;SDS011;16440;59.494;17.978;2022-08-25T15:02:14;5.20;;;0.83;;
29484;SDS011;16440;59.494;17.978;2022-08-25T15:05:29;0.85;;;0.70;;
29484;SDS011;16440;59.494;17.978;2022-08-25T15:08:08;2.35;;;0.90;;
29484;SDS011;16440;59.494;17.978;2022-08-25T15:13:32;2.05;;;0.88;;
29484;SDS011;16440;59.494;17.978;2022-08-25T15:19:02;1.23;;;0.70;;
29484;SDS011;16440;59.494;17.978;2022-08-25T15:21:32;3.95;;;0.73;;
29484;SDS011;16440;59.494;17.978;2022-08-25T15:24:22;1.02;;;0.73;;
29484;SDS011;16440;59.494;17.978;2022-08-25T15:27:04;0.73;;;0.40;;
29484;SDS011;16440;59.494;17.978;2022-08-25T15:32:38;1.25;;;0.80;;
29484;SDS011;16440;59.494;17.978;2022-08-25T15:35:22;1.27;;;0.77;;
29484;SDS011;16440;59.494;17.978;2022-08-25T15:38:08;1.25;;;0.80;;
29484;SDS011;16440;59.494;17.978;2022-08-25T15:40:54;1.00;;;0.73;;
29484;SDS011;16440;59.494;17.978;2022-08-25T15:43:21;1.42;;;0.77;;
29484;SDS011;16440;59.494;17.978;2022-08-25T15:49:25;3.15;;;0.70;;
29484;SDS011;16440;59.494;17.978;2022-08-25T15:52:07;2.30;;;1.00;;
29484;SDS011;16440;59.494;17.978;2022-08-25T15:54:52;1.02;;;0.80;;
29484;SDS011;16440;59.494;17.978;2022-08-25T15:57:26;3.08;;;1.10;;
29484;SDS011;16440;59.494;17.978;2022-08-25T15:59:58;2.10;;;0.85;;
29484;SDS011;16440;59.494;17.978;2022-08-25T16:02:34;2.08;;;0.90;;
29484;SDS011;16440;59.494;17.978;2022-08-25T16:05:08;3.95;;;1.15;;
29484;SDS011;16440;59.494;17.978;2022-08-25T16:07:39;1.48;;;1.05;;
29484;SDS011;16440;59.494;17.978;2022-08-25T16:10:18;1.25;;;0.77;;
29484;SDS011;16440;59.494;17.978;2022-08-25T16:12:47;2.25;;;1.00;;
29484;SDS011;16440;59.494;17.978;2022-08-25T16:15:16;3.30;;;1.33;;
29484;SDS011;16440;59.494;17.978;2022-08-25T16:17:44;1.73;;;1.05;;
29484;SDS011;16440;59.494;17.978;2022-08-25T16:20:18;5.20;;;1.70;;
29484;SDS011;16440;59.494;17.978;2022-08-25T16:22:48;3.83;;;1.40;;
29484;SDS011;16440;59.494;17.978;2022-08-25T16:25:20;3.40;;;1.37;;
29484;SDS011;16440;59.494;17.978;2022-08-25T16:28:02;4.07;;;1.10;;
29484;SDS011;16440;59.494;17.978;2022-08-25T16:30:34;2.45;;;1.35;;
29484;SDS011;16440;59.494;17.978;2022-08-25T16:33:04;3.67;;;1.65;;
29484;SDS011;16440;59.494;17.978;2022-08-25T16:35:36;7.30;;;1.87;;
29484;SDS011;16440;59.494;17.978;2022-08-25T16:38:05;3.83;;;1.75;;
29484;SDS011;16440;59.494;17.978;2022-08-25T16:40:33;5.53;;;2.17;;
29484;SDS011;16440;59.494;17.978;2022-08-25T16:43:06;4.18;;;1.70;;
29484;SDS011;16440;59.494;17.978;2022-08-25T16:45:36;4.15;;;1.60;;
29484;SDS011;16440;59.494;17.978;2022-08-25T16:48:04;4.47;;;1.62;;
29484;SDS011;16440;59.494;17.978;2022-08-25T16:50:35;4.75;;;1.37;;
29484;SDS011;16440;59.494;17.978;2022-08-25T16:53:08;2.53;;;1.27;;
29484;SDS011;16440;59.494;17.978;2022-08-25T16:58:31;3.47;;;1.20;;
29484;SDS011;16440;59.494;17.978;2022-08-25T17:01:06;2.00;;;1.25;;
29484;SDS011;16440;59.494;17.978;2022-08-25T17:03:39;2.42;;;1.15;;
29484;SDS011;16440;59.494;17.978;2022-08-25T17:06:09;3.10;;;1.48;;
29484;SDS011;16440;59.494;17.978;2022-08-25T17:08:41;3.25;;;1.70;;
29484;SDS011;16440;59.494;17.978;2022-08-25T17:11:11;3.12;;;1.50;;
29484;SDS011;16440;59.494;17.978;2022-08-25T17:13:49;3.08;;;1.30;;
29484;SDS011;16440;59.494;17.978;2022-08-25T17:16:19;2.70;;;1.10;;
29484;SDS011;16440;59.494;17.978;2022-08-25T17:18:54;2.05;;;0.93;;
29484;SDS011;16440;59.494;17.978;2022-08-25T17:21:23;1.92;;;1.00;;
29484;SDS011;16440;59.494;17.978;2022-08-25T17:24:06;2.70;;;1.12;;
29484;SDS011;16440;59.494;17.978;2022-08-25T17:26:38;3.47;;;1.08;;
29484;SDS011;16440;59.494;17.978;2022-08-25T17:29:10;2.25;;;1.10;;